Time;durP1;ratioP1;P1;durP2;ratioP2;P2;SDS_P1;SDS_P2;PMS_P1;PMS_P2;Temp;Humidity;BMP_temperature;BMP_pressure;BME280_temperature;BME280_humidity;BME280_pressure;Samples;Min_cycle;Max_cycle;Signal;HPM_P1;HPM_P2
2024/02/17 00:00:37;;;;;;;1.80;1.33;;;;;;;14.27;100.00;99372.28;5161657;27;41777;-91
2024/02/17 00:03:05;;;;;;;3.27;1.80;;;;;;;13.95;100.00;99324.75;5158130;27;43929;-92
2024/02/17 00:05:32;;;;;;;2.03;1.40;;;;;;;14.20;100.00;99366.53;5141285;27;42550;-93
2024/02/17 00:08:00;;;;;;;3.03;1.30;;;;;;;14.21;100.00;99372.72;5158653;27;40088;-92
2024/02/17 00:10:28;;;;;;;1.30;1.20;;;;;;;14.20;100.00;99379.00;5140761;27;40605;-90
2024/02/17 00:12:55;;;;;;;2.60;1.40;;;;;;;14.05;100.00;99361.41;5140343;27;41532;-92
2024/02/17 00:15:24;;;;;;;1.37;1.20;;;;;;;14.11;100.00;99372.47;5140463;27;41461;-91
2024/02/17 00:17:52;;;;;;;1.87;1.47;;;;;;;13.90;100.00;99347.31;5140446;27;38990;-92
2024/02/17 00:20:21;;;;;;;2.30;1.10;;;;;;;14.07;100.00;99379.00;5142596;27;41295;-89
2024/02/17 00:22:49;;;;;;;0.97;0.93;;;;;;;13.70;100.00;99323.88;5142075;27;42841;-90
2024/02/17 00:25:17;;;;;;;1.30;1.20;;;;;;;14.13;100.00;99396.34;5141349;27;41258;-89
2024/02/17 00:27:45;;;;;;;1.93;1.10;;;;;;;14.03;100.00;99383.66;5160881;27;40107;-92
2024/02/17 00:30:15;;;;;;;1.30;1.00;;;;;;;13.91;100.00;99375.66;5140222;27;41888;-90
2024/02/17 00:32:44;;;;;;;1.07;1.07;;;;;;;13.92;100.00;99378.22;5140652;27;41657;-88
2024/02/17 00:35:13;;;;;;;1.20;1.10;;;;;;;13.73;100.00;99356.44;5139821;27;41128;-90
2024/02/17 00:37:41;;;;;;;1.20;1.10;;;;;;;13.94;100.00;99394.94;5139898;27;38890;-88
2024/02/17 00:40:09;;;;;;;3.30;1.30;;;;;;;13.92;100.00;99399.53;5139926;27;41714;-89
2024/02/17 00:42:37;;;;;;;1.13;1.03;;;;;;;13.90;100.00;99398.75;5140272;27;41617;-91
2024/02/17 00:45:05;;;;;;;1.40;1.30;;;;;;;13.84;100.00;99391.22;5140202;27;41218;-90
2024/02/17 00:47:32;;;;;;;1.37;1.27;;;;;;;13.98;100.00;99422.19;5139377;27;38829;-89
2024/02/17 00:50:02;;;;;;;1.30;1.20;;;;;;;13.90;100.00;99405.91;5158037;27;42146;-90
2024/02/17 00:52:30;;;;;;;2.53;1.10;;;;;;;13.77;100.00;99392.56;5124771;27;41726;-89
2024/02/17 00:54:58;;;;;;;1.70;1.33;;;;;;;13.86;100.00;99415.03;5166491;27;42969;-89
2024/02/17 00:57:25;;;;;;;1.37;1.17;;;;;;;13.89;100.00;99420.16;5183668;27;39907;-88
2024/02/17 00:59:53;;;;;;;2.13;1.03;;;;;;;13.84;100.00;99420.50;5165401;27;41744;-89
2024/02/17 01:02:29;;;;;;;2.63;1.50;;;;;;;13.74;100.00;99403.41;5147763;27;41641;-89
2024/02/17 01:04:57;;;;;;;1.27;1.17;;;;;;;13.87;100.00;99438.03;5147169;27;40975;-88
2024/02/17 01:07:26;;;;;;;1.70;1.40;;;;;;;13.80;100.00;99440.28;5161878;27;41303;-91
2024/02/17 01:09:55;;;;;;;1.90;1.50;;;;;;;13.86;100.00;99453.16;5157991;27;42725;-91
2024/02/17 01:12:23;;;;;;;3.03;1.60;;;;;;;13.71;100.00;99427.59;5157508;27;42741;-89
2024/02/17 01:14:50;;;;;;;2.33;1.90;;;;;;;13.85;100.00;99456.78;5140314;27;41371;-91
2024/02/17 01:17:18;;;;;;;3.67;2.13;;;;;;;13.80;100.00;99458.91;5143695;27;39248;-89
2024/02/17 01:19:47;;;;;;;2.10;1.87;;;;;;;13.66;100.00;99446.50;5147942;27;41003;-89
2024/02/17 01:22:14;;;;;;;2.57;2.00;;;;;;;13.66;100.00;99456.31;5163023;27;43076;-90
2024/02/17 01:24:43;;;;;;;2.83;2.33;;;;;;;13.62;100.00;99452.13;5161846;27;42591;-88
2024/02/17 01:27:11;;;;;;;2.40;1.80;;;;;;;13.59;100.00;99453.19;5143419;27;38913;-90
2024/02/17 01:29:38;;;;;;;2.70;2.20;;;;;;;13.63;100.00;99472.47;5161130;27;41930;-91
2024/02/17 01:32:07;;;;;;;2.57;2.33;;;;;;;13.58;100.00;99463.94;5142860;27;42030;-91
2024/02/17 01:34:34;;;;;;;2.87;2.23;;;;;;;13.65;100.00;99486.53;5143656;27;41142;-90
2024/02/17 01:37:02;;;;;;;2.90;2.03;;;;;;;13.58;100.00;99479.91;5143543;27;38922;-89
2024/02/17 01:39:30;;;;;;;3.83;2.90;;;;;;;13.57;100.00;99480.88;5160999;27;42082;-92
2024/02/17 01:42:00;;;;;;;3.07;2.77;;;;;;;13.52;100.00;99472.31;5160575;27;43180;-89
2024/02/17 01:44:27;;;;;;;3.40;2.53;;;;;;;13.41;100.00;99456.19;5161113;27;42645;-91
2024/02/17 01:46:55;;;;;;;3.53;2.80;;;;;;;13.38;100.00;99462.56;5161163;27;41068;-89
2024/02/17 01:49:23;;;;;;;3.50;3.03;;;;;;;13.39;100.00;99468.72;5160323;27;42022;-90
2024/02/17 01:51:51;;;;;;;3.07;2.73;;;;;;;13.55;100.00;99501.38;5160288;27;42949;-90
2024/02/17 01:54:19;;;;;;;3.90;3.17;;;;;;;13.46;100.00;99488.69;5160238;27;43205;-90
2024/02/17 01:56:48;;;;;;;3.93;3.33;;;;;;;13.45;100.00;99494.97;5160314;27;40927;-90
2024/02/17 01:59:17;;;;;;;3.63;2.70;;;;;;;13.45;100.00;99494.97;5142413;27;40840;-89
2024/02/17 02:01:46;;;;;;;3.87;2.93;;;;;;;13.51;100.00;99510.50;5141973;27;41605;-89
2024/02/17 02:04:14;;;;;;;3.77;2.63;;;;;;;13.47;100.00;99507.22;5159984;27;42116;-90
2024/02/17 02:06:41;;;;;;;4.40;2.83;;;;;;;13.51;100.00;99511.38;5141850;27;39906;-92
2024/02/17 02:09:09;;;;;;;3.87;2.97;;;;;;;13.40;100.00;99491.72;5160025;27;41837;-90
2024/02/17 02:11:38;;;;;;;4.57;3.30;;;;;;;13.49;100.00;99505.28;5159735;27;42991;-90
2024/02/17 02:14:17;;;;;;;4.67;3.60;;;;;;;13.54;100.00;99515.66;5159911;27;43086;-89
2024/02/17 02:16:45;;;;;;;4.37;3.30;;;;;;;13.54;100.00;99526.28;5142043;27;38945;-88
2024/02/17 02:19:14;;;;;;;4.43;3.53;;;;;;;13.45;100.00;99511.78;5124970;27;40638;-90
2024/02/17 02:21:43;;;;;;;4.40;3.50;;;;;;;13.46;100.00;99513.50;5159681;27;42851;-90
2024/02/17 02:24:11;;;;;;;5.47;3.70;;;;;;;13.56;100.00;99529.72;5141799;27;41072;-89
2024/02/17 02:26:40;;;;;;;5.27;4.07;;;;;;;13.40;100.00;99502.38;5159330;27;39753;-91
2024/02/17 02:29:08;;;;;;;4.37;3.57;;;;;;;13.56;100.00;99533.22;5142313;27;41685;-90
2024/02/17 02:31:36;;;;;;;5.50;4.37;;;;;;;13.36;100.00;99511.47;5141458;27;41844;-90
2024/02/17 02:34:03;;;;;;;5.53;4.10;;;;;;;13.45;100.00;99533.06;5142204;27;41299;-90
2024/02/17 02:36:31;;;;;;;5.20;3.77;;;;;;;13.53;100.00;99545.88;5141532;27;40172;-92
2024/02/17 02:38:58;;;;;;;6.10;4.30;;;;;;;13.53;100.00;99556.50;5159553;27;42403;-90
2024/02/17 02:41:26;;;;;;;7.07;4.47;;;;;;;13.45;100.00;99534.88;5159059;27;42872;-91
2024/02/17 02:43:55;;;;;;;6.90;4.73;;;;;;;13.39;100.00;99529.91;5141503;27;41585;-89
2024/02/17 02:46:22;;;;;;;7.50;4.87;;;;;;;13.24;100.00;99524.59;5159082;27;39899;-89
2024/02/17 02:48:50;;;;;;;6.13;4.80;;;;;;;13.38;100.00;99545.03;5157568;27;41906;-89
2024/02/17 02:51:18;;;;;;;6.37;4.40;;;;;;;13.38;100.00;99557.47;5140815;27;42791;-89
2024/02/17 02:53:45;;;;;;;6.30;4.77;;;;;;;13.41;100.00;99557.28;5158957;27;42482;-90
2024/02/17 02:56:13;;;;;;;7.73;5.53;;;;;;;13.36;100.00;99552.25;5141622;27;39876;-90
2024/02/17 02:58:44;;;;;;;6.60;4.80;;;;;;;13.43;100.00;99572.22;5159094;27;41922;-90
2024/02/17 03:01:13;;;;;;;6.67;5.23;;;;;;;13.14;100.00;99528.81;5158977;27;42376;-91
2024/02/17 03:03:41;;;;;;;5.93;4.73;;;;;;;13.27;100.00;99567.00;5140960;27;41379;-91
2024/02/17 03:06:08;;;;;;;5.90;4.47;;;;;;;13.35;100.00;99578.97;5158773;27;41070;-88
2024/02/17 03:08:35;;;;;;;6.07;4.47;;;;;;;13.14;100.00;99560.72;5158243;27;41939;-91
2024/02/17 03:11:02;;;;;;;5.43;4.13;;;;;;;13.24;100.00;99588.44;5158586;27;43836;-90
2024/02/17 03:13:30;;;;;;;6.47;4.93;;;;;;;13.09;100.00;99573.44;5158339;27;42032;-87
2024/02/17 03:15:57;;;;;;;6.47;4.50;;;;;;;13.08;100.00;99587.66;5158841;27;41041;-91
2024/02/17 03:18:26;;;;;;;6.03;4.90;;;;;;;12.97;100.00;99584.81;5158112;27;41848;-91
2024/02/17 03:20:54;;;;;;;6.33;4.73;;;;;;;12.90;100.00;99599.41;5158366;27;43701;-90
2024/02/17 03:23:21;;;;;;;6.30;4.47;;;;;;;12.78;100.00;99587.69;5158446;27;42486;-91
2024/02/17 03:25:49;;;;;;;6.03;4.43;;;;;;;12.81;100.00;99610.59;5158638;27;39934;-90
2024/02/17 03:28:17;;;;;;;5.13;3.97;;;;;;;12.56;100.00;99598.75;5157755;27;42077;-91
2024/02/17 03:30:45;;;;;;;5.13;4.00;;;;;;;12.52;100.00;99615.81;5143237;27;42731;-90
2024/02/17 03:33:12;;;;;;;5.77;4.17;;;;;;;12.41;100.00;99614.72;5141922;27;40982;-91
2024/02/17 03:35:41;;;;;;;5.73;4.77;;;;;;;12.40;100.00;99632.47;5158465;27;40296;-92
2024/02/17 03:38:09;;;;;;;6.60;4.83;;;;;;;12.14;100.00;99609.19;5139196;27;41993;-93
2024/02/17 03:40:36;;;;;;;5.97;4.80;;;;;;;12.16;100.00;99636.53;5140630;27;42864;-91
2024/02/17 03:43:04;;;;;;;4.57;3.73;;;;;;;12.00;100.00;99633.00;5140464;27;41453;-91
2024/02/17 03:45:32;;;;;;;4.87;4.13;;;;;;;11.89;100.00;99636.25;5158426;27;39346;-92
2024/02/17 03:47:59;;;;;;;5.33;4.30;;;;;;;11.79;100.00;99638.56;5140490;27;40831;-92
2024/02/17 03:50:27;;;;;;;7.07;5.27;;;;;;;11.34;100.00;99585.34;5139848;27;43158;-90
2024/02/17 03:52:56;;;;;;;5.93;4.33;;;;;;;11.50;100.00;99626.00;5157984;27;43206;-92
2024/02/17 03:55:24;;;;;;;6.80;5.03;;;;;;;11.44;100.00;99640.47;5139765;27;38844;-91
2024/02/17 03:57:51;;;;;;;6.13;4.63;;;;;;;11.41;100.00;99645.06;5140350;27;40715;-92
2024/02/17 04:00:19;;;;;;;5.20;4.20;;;;;;;11.21;100.00;99634.66;5157735;27;43544;-92
2024/02/17 04:02:47;;;;;;;6.37;4.17;;;;;;;11.19;100.00;99653.31;5158165;27;43305;-92
2024/02/17 04:05:16;;;;;;;5.03;3.97;;;;;;;11.19;100.00;99665.69;5140172;27;38960;-91
2024/02/17 04:07:44;;;;;;;8.17;4.97;;;;;;;11.08;100.00;99675.06;5139737;27;40661;-91
2024/02/17 04:10:13;;;;;;;5.87;4.50;;;;;;;10.99;100.00;99677.34;5157695;27;42883;-92
2024/02/17 04:12:42;;;;;;;6.63;4.80;;;;;;;10.96;100.00;99701.34;5139944;27;41352;-92
2024/02/17 04:15:10;;;;;;;6.27;4.53;;;;;;;10.88;100.00;99698.22;5157276;27;40184;-90
2024/02/17 04:17:38;;;;;;;6.60;4.80;;;;;;;10.82;100.00;99704.69;5139646;27;41087;-91
2024/02/17 04:20:07;;;;;;;7.43;5.20;;;;;;;10.87;100.00;99723.88;5141320;27;41884;-89
2024/02/17 04:22:35;;;;;;;7.23;5.07;;;;;;;10.74;100.00;99714.81;5139503;27;41216;-92
2024/02/17 04:25:03;;;;;;;8.20;5.13;;;;;;;10.83;100.00;99732.91;5156610;27;39951;-91
2024/02/17 04:27:32;;;;;;;8.07;5.20;;;;;;;10.82;100.00;99728.53;5139443;27;41243;-89
2024/02/17 08:50:19;;;;;;;5.43;4.90;;;;;;;22.55;52.59;100225.00;5122895;27;21280;-94
2024/02/17 08:52:48;;;;;;;6.67;5.30;;;;;;;22.86;50.45;100184.44;5072720;28;39667;-95
2024/02/17 08:55:16;;;;;;;6.57;5.67;;;;;;;23.10;48.58;100187.56;5072463;28;41055;-94
2024/02/17 08:57:44;;;;;;;5.60;5.10;;;;;;;24.14;46.09;100226.31;5072396;28;43111;-95
2024/02/17 09:00:15;;;;;;;5.80;4.60;;;;;;;24.31;45.96;100233.69;5072478;28;41138;-94
2024/02/17 09:02:44;;;;;;;5.10;4.60;;;;;;;23.71;46.34;100200.72;5072368;28;38928;-94
2024/02/17 09:05:12;;;;;;;4.90;4.47;;;;;;;23.71;45.42;100216.09;5071999;28;42020;-93
2024/02/17 09:07:41;;;;;;;7.77;5.20;;;;;;;23.49;44.73;100263.22;5071900;28;44199;-93
2024/02/17 09:10:39;;;;;;;6.13;4.80;;;;;;;22.99;45.56;100268.78;5071562;28;42089;-91
2024/02/17 09:13:19;;;;;;;5.93;4.83;;;;;;;22.66;46.61;100258.28;5071321;28;41218;-92
2024/02/17 09:20:57;;;;;;;5.73;4.73;;;;;;;21.54;48.19;100259.16;5071335;28;41741;-90
2024/02/17 09:23:33;;;;;;;5.53;4.17;;;;;;;21.07;48.92;100237.06;5072468;28;42297;-93
2024/02/17 09:29:54;;;;;;;4.63;3.70;;;;;;;20.14;50.55;100183.84;5071215;28;42347;-92
2024/02/17 09:36:43;;;;;;;4.43;4.03;;;;;;;19.96;51.32;100186.16;5087656;27;42901;-91
2024/02/17 09:52:28;;;;;;;4.97;4.30;;;;;;;20.84;48.76;100254.28;5117011;27;42279;-90
2024/02/17 09:54:59;;;;;;;4.70;4.30;;;;;;;20.59;48.08;100265.38;5149857;27;39911;-91
2024/02/17 09:57:52;;;;;;;4.67;3.47;;;;;;;20.67;48.68;100300.59;5131877;27;41336;-92
2024/02/17 10:05:34;;;;;;;;;;;;;;;;;;;;;
2024/02/17 10:09:32;;;;;;;4.83;3.60;;;;;;;22.63;45.52;100331.47;5107527;27;40412;-90
2024/02/17 10:17:39;;;;;;;3.77;3.20;;;;;;;22.51;45.58;100347.78;5061354;28;43651;-91
2024/02/17 10:20:31;;;;;;;3.73;3.17;;;;;;;22.66;45.07;100323.94;5125738;27;41471;-91
2024/02/17 10:23:44;;;;;;;4.60;4.07;;;;;;;22.49;44.47;100357.88;5126501;27;40785;-91
2024/02/17 10:26:41;;;;;;;4.10;3.70;;;;;;;22.01;45.06;100348.63;5135810;27;42586;-90
2024/02/17 10:43:44;;;;;;;4.27;3.33;;;;;;;22.72;45.39;100349.56;5136986;27;42613;-91
2024/02/17 10:46:49;;;;;;;4.93;3.37;;;;;;;22.36;44.58;100327.53;5120846;27;41794;-92
2024/02/17 11:23:27;;;;;;;3.20;2.53;;;;;;;23.42;43.88;100381.91;5156157;27;41134;-92
2024/02/17 11:31:10;;;;;;;3.97;2.57;;;;;;;22.66;44.10;100387.91;5135409;27;43507;-92
2024/02/17 11:36:22;;;;;;;5.37;2.57;;;;;;;21.78;45.14;100362.22;5136897;27;40499;-92
2024/02/17 11:42:32;;;;;;;3.43;2.97;;;;;;;21.09;45.75;100377.91;5137178;27;42224;-91
2024/02/17 11:53:35;;;;;;;4.43;2.33;;;;;;;21.84;44.90;100380.59;5129975;27;41634;-91
2024/02/17 11:56:14;;;;;;;3.90;3.50;;;;;;;22.03;43.97;100369.09;5116262;27;43074;-92
2024/02/17 11:59:00;;;;;;;3.63;2.93;;;;;;;22.16;44.41;100342.78;5116078;27;41241;-93
2024/02/17 12:01:28;;;;;;;3.30;3.00;;;;;;;22.37;43.93;100372.44;5116209;27;39038;-90
2024/02/17 12:04:30;;;;;;;3.37;3.07;;;;;;;22.37;43.38;100375.16;5116152;27;42274;-91
2024/02/17 12:07:30;;;;;;;5.30;3.27;;;;;;;22.04;43.90;100316.00;5108549;27;41838;-90
2024/02/17 12:10:00;;;;;;;4.60;3.40;;;;;;;22.46;42.99;100389.69;5092153;27;41557;-91
2024/02/17 12:12:39;;;;;;;3.67;3.30;;;;;;;22.37;43.53;100377.00;5115679;27;40913;-90
2024/02/17 12:15:09;;;;;;;4.17;3.77;;;;;;;22.35;43.68;100390.63;5115373;27;40747;-90
2024/02/17 12:17:43;;;;;;;4.50;3.10;;;;;;;22.12;43.09;100376.44;5115769;27;41729;-90
2024/02/17 12:20:17;;;;;;;3.60;3.30;;;;;;;21.84;43.42;100315.88;5115821;27;42479;-91
2024/02/17 12:22:48;;;;;;;3.67;2.80;;;;;;;22.11;43.27;100352.28;5115399;27;39032;-92
2024/02/17 12:25:18;;;;;;;3.60;3.20;;;;;;;22.18;42.97;100361.53;5116610;27;41818;-92
2024/02/17 12:27:48;;;;;;;3.50;2.80;;;;;;;22.05;43.29;100358.19;5115737;27;41763;-91
2024/02/17 12:30:23;;;;;;;2.43;2.23;;;;;;;21.70;44.13;100335.06;5116114;27;42887;-92
2024/02/17 12:33:11;;;;;;;3.13;2.83;;;;;;;21.52;44.25;100304.25;5115522;27;40461;-92
2024/02/17 12:35:45;;;;;;;3.80;3.00;;;;;;;22.01;44.61;100354.03;5115678;27;40792;-92
2024/02/17 12:38:17;;;;;;;3.47;3.17;;;;;;;22.94;42.94;100381.81;5115968;27;42643;-90
2024/02/17 12:41:18;;;;;;;4.10;3.67;;;;;;;22.39;43.18;100331.78;5115689;27;43967;-90
2024/02/17 12:43:51;;;;;;;5.37;3.53;;;;;;;22.17;43.82;100367.91;5115399;27;39965;-89
2024/02/17 12:46:23;;;;;;;4.77;3.37;;;;;;;21.38;44.01;100328.84;5115596;27;42100;-93
2024/02/17 12:48:58;;;;;;;3.07;2.70;;;;;;;20.95;44.63;100335.06;5115063;27;44765;-90
2024/02/17 12:51:28;;;;;;;3.93;3.07;;;;;;;20.62;45.40;100351.28;5114849;27;41797;-89
2024/02/17 12:53:56;;;;;;;3.17;2.87;;;;;;;20.28;45.72;100353.03;5114326;27;38838;-89
2024/02/17 12:56:28;;;;;;;3.77;2.87;;;;;;;20.03;46.53;100360.34;5115493;27;41831;-90
2024/02/17 12:58:57;;;;;;;5.60;4.03;;;;;;;19.79;47.08;100350.63;5114964;27;43432;-89
2024/02/17 13:01:32;;;;;;;3.40;3.10;;;;;;;19.58;47.14;100337.88;5115141;27;41180;-90
2024/02/17 13:04:03;;;;;;;4.37;3.03;;;;;;;19.52;47.52;100307.94;5115038;27;40620;-90
2024/02/17 13:06:37;;;;;;;3.50;2.77;;;;;;;19.66;47.25;100322.00;5115309;27;40737;-91
2024/02/17 13:09:09;;;;;;;2.63;2.20;;;;;;;19.58;47.18;100305.63;5114930;27;42963;-89
2024/02/17 13:11:42;;;;;;;4.67;2.63;;;;;;;19.81;46.80;100343.31;5114478;27;42516;-89
2024/02/17 13:14:14;;;;;;;4.83;2.30;;;;;;;20.00;46.90;100359.75;5115183;27;38689;-90
2024/02/17 13:16:47;;;;;;;3.53;2.50;;;;;;;20.04;46.68;100366.59;5131859;27;41017;-93
2024/02/17 13:19:23;;;;;;;2.50;2.30;;;;;;;19.85;45.62;100358.25;5115342;27;42498;-91
2024/02/17 13:21:54;;;;;;;2.53;2.20;;;;;;;19.87;46.10;100365.22;5115878;27;41826;-91
2024/02/17 13:24:22;;;;;;;2.70;2.10;;;;;;;20.04;46.25;100359.38;5116350;27;38992;-91
2024/02/17 13:26:55;;;;;;;2.43;2.03;;;;;;;20.50;46.48;100355.81;5117394;27;40602;-91
2024/02/17 13:29:54;;;;;;;2.30;2.03;;;;;;;21.04;45.87;100358.53;5123697;27;43017;-91
2024/02/17 13:32:23;;;;;;;2.37;2.17;;;;;;;21.55;45.05;100384.03;5114798;27;41421;-91
2024/02/17 13:34:58;;;;;;;4.53;2.43;;;;;;;21.42;44.51;100357.25;5122624;27;39932;-90
2024/02/17 13:37:27;;;;;;;3.63;2.50;;;;;;;21.22;44.02;100355.38;5120144;27;41154;-92
2024/02/17 13:39:56;;;;;;;2.10;1.90;;;;;;;21.07;44.69;100346.66;5121225;27;42270;-89
2024/02/17 13:42:28;;;;;;;3.10;2.47;;;;;;;21.09;45.24;100367.13;5122885;27;42457;-91
2024/02/17 13:45:05;;;;;;;2.10;1.90;;;;;;;20.74;44.09;100363.75;5122909;27;39309;-92
2024/02/17 13:47:35;;;;;;;3.20;2.40;;;;;;;20.44;44.90;100375.13;5123476;27;41350;-89
2024/02/17 13:50:27;;;;;;;2.13;1.77;;;;;;;19.71;45.55;100306.41;5140200;27;43621;-91
2024/02/17 13:52:56;;;;;;;3.97;1.93;;;;;;;19.77;46.35;100380.34;5121817;27;42216;-90
2024/02/17 13:55:25;;;;;;;2.80;2.40;;;;;;;19.32;46.19;100376.56;5121209;27;39065;-92
2024/02/17 13:58:26;;;;;;;3.47;2.33;;;;;;;19.06;47.08;100397.28;5142317;27;41334;-92
2024/02/17 14:13:13;;;;;;;1.67;1.53;;;;;;;17.51;50.61;100368.81;5136048;27;41121;-89
2024/02/17 14:24:31;;;;;;;4.67;2.93;;;;;;;16.85;51.57;100310.72;5084301;27;40126;-89
2024/02/17 14:32:20;;;;;;;3.73;2.67;;;;;;;17.56;52.44;100388.09;5051913;28;45089;-89
2024/02/17 14:34:58;;;;;;;3.30;2.67;;;;;;;17.28;52.42;100323.97;5018933;28;41344;-88
2024/02/17 14:37:35;;;;;;;4.03;2.73;;;;;;;17.56;52.49;100349.75;5019271;28;39161;-88
2024/02/17 14:40:09;;;;;;;3.13;2.60;;;;;;;17.71;52.80;100353.25;5034248;28;41612;-89
2024/02/17 14:42:43;;;;;;;3.37;2.50;;;;;;;17.68;52.68;100332.03;5071640;28;43634;-89
2024/02/17 14:45:11;;;;;;;3.20;2.90;;;;;;;17.80;52.85;100347.28;5038668;28;44531;-88
2024/02/17 14:47:51;;;;;;;3.10;2.70;;;;;;;17.85;52.55;100354.00;5054833;28;40408;-88
2024/02/17 14:50:23;;;;;;;4.53;3.00;;;;;;;18.02;52.69;100389.53;5038901;28;42448;-89
2024/02/17 14:52:52;;;;;;;3.60;2.70;;;;;;;17.88;52.89;100366.34;5038068;28;42111;-89
2024/02/17 14:55:23;;;;;;;4.90;2.80;;;;;;;17.89;53.07;100376.13;5044565;28;42750;-87
2024/02/17 15:01:37;;;;;;;4.47;2.93;;;;;;;17.57;52.55;100373.75;5093327;28;42716;-89
2024/02/17 15:04:04;;;;;;;3.53;2.43;;;;;;;17.36;53.31;100342.19;5078629;28;41625;-89
2024/02/17 15:06:33;;;;;;;4.23;3.00;;;;;;;17.54;53.41;100384.69;5106441;27;41791;-87
2024/02/17 15:09:02;;;;;;;4.87;3.10;;;;;;;17.44;53.84;100383.56;5116393;27;38948;-88
2024/02/17 15:11:35;;;;;;;5.13;3.67;;;;;;;17.25;53.53;100388.44;5133752;27;42032;-89
2024/02/17 15:14:03;;;;;;;3.90;3.00;;;;;;;17.12;54.51;100384.84;5116091;27;42352;-89
2024/02/17 15:16:31;;;;;;;4.40;3.37;;;;;;;17.03;54.62;100388.13;5117319;27;42166;-88
2024/02/17 15:18:58;;;;;;;4.40;3.40;;;;;;;17.06;55.10;100407.50;5116857;27;39442;-88
2024/02/17 15:21:26;;;;;;;5.03;3.57;;;;;;;16.95;55.33;100410.00;5116211;27;40350;-89
2024/02/17 15:23:56;;;;;;;4.67;3.60;;;;;;;16.65;55.59;100383.41;5116174;27;42933;-88
2024/02/17 15:26:24;;;;;;;5.30;3.73;;;;;;;16.66;55.98;100393.16;5099296;27;42366;-87
2024/02/17 15:28:51;;;;;;;5.23;3.67;;;;;;;16.67;56.12;100412.75;5134316;27;41516;-89
2024/02/17 15:31:18;;;;;;;6.30;3.67;;;;;;;16.46;56.43;100390.81;5116151;27;40662;-89
2024/02/17 15:33:46;;;;;;;6.30;3.53;;;;;;;16.40;56.08;100399.22;5098823;27;42059;-88
2024/02/17 15:36:16;;;;;;;4.87;3.57;;;;;;;16.33;56.58;100397.88;5116584;27;42479;-89
2024/02/17 15:38:45;;;;;;;4.00;3.00;;;;;;;16.30;56.90;100403.44;5116037;27;39107;-88
2024/02/17 15:41:15;;;;;;;4.30;3.03;;;;;;;16.16;57.59;100393.56;5115777;27;41252;-88
2024/02/17 15:43:43;;;;;;;3.57;2.93;;;;;;;16.19;57.69;100412.13;5115841;27;41708;-88
2024/02/17 15:46:12;;;;;;;4.80;3.20;;;;;;;16.14;57.59;100415.06;5132968;27;42711;-88
2024/02/17 15:48:40;;;;;;;2.47;2.27;;;;;;;16.09;57.96;100413.59;5115921;27;39066;-88
2024/02/17 15:51:10;;;;;;;5.17;3.00;;;;;;;15.96;58.34;100396.56;5115013;27;41718;-88
2024/02/17 15:53:37;;;;;;;3.27;2.97;;;;;;;15.94;59.15;100406.53;5115037;27;43218;-88
2024/02/17 15:56:10;;;;;;;4.07;3.47;;;;;;;15.76;59.27;100395.97;5115879;27;44026;-88
2024/02/17 15:58:40;;;;;;;4.47;3.17;;;;;;;15.66;59.80;100401.94;5115175;27;38689;-88
2024/02/17 16:01:07;;;;;;;6.17;3.50;;;;;;;15.58;59.92;100401.56;5133200;27;42282;-87
2024/02/17 16:03:38;;;;;;;3.57;3.17;;;;;;;15.52;60.08;100404.53;5115736;27;42079;-87
2024/02/17 16:06:06;;;;;;;3.80;3.20;;;;;;;15.51;60.71;100408.16;5133105;27;43501;-88
2024/02/17 16:08:40;;;;;;;3.50;2.97;;;;;;;15.48;60.56;100409.19;5133263;27;39443;-88
2024/02/17 16:11:10;;;;;;;3.83;3.20;;;;;;;15.42;60.93;100410.41;5116090;27;42045;-89
2024/02/17 16:13:43;;;;;;;3.77;3.10;;;;;;;15.37;60.91;100407.13;5114903;27;41775;-89
2024/02/17 16:16:10;;;;;;;3.80;2.90;;;;;;;15.34;61.11;100417.97;5115817;27;40912;-87
2024/02/17 16:18:39;;;;;;;3.40;3.10;;;;;;;15.17;61.25;100394.06;5115602;27;39483;-88
2024/02/17 16:21:07;;;;;;;5.00;2.90;;;;;;;15.04;61.18;100387.72;5132814;27;40642;-88
2024/02/17 16:23:35;;;;;;;3.00;2.70;;;;;;;15.09;61.18;100412.31;5114984;27;41843;-90
2024/02/17 16:26:02;;;;;;;3.40;2.90;;;;;;;15.13;61.87;100419.22;5115387;27;41250;-89
2024/02/17 16:28:30;;;;;;;4.17;2.83;;;;;;;15.06;62.01;100409.84;5115172;27;39722;-88
2024/02/17 16:31:02;;;;;;;5.30;2.73;;;;;;;14.92;61.89;100393.75;5115724;27;40856;-88
2024/02/17 16:33:59;;;;;;;3.20;2.87;;;;;;;14.88;61.86;100403.72;5132310;27;42872;-88
2024/02/17 16:36:56;;;;;;;3.47;3.00;;;;;;;14.96;62.27;100424.66;5114957;27;42729;-89
2024/02/17 16:39:26;;;;;;;3.77;3.30;;;;;;;14.83;63.12;100420.94;5114943;27;40231;-88
2024/02/17 16:42:05;;;;;;;5.23;3.50;;;;;;;14.40;63.55;100356.59;5115343;27;40975;-88
2024/02/17 16:44:33;;;;;;;3.70;3.37;;;;;;;14.20;63.56;100338.13;5115737;27;43516;-89
2024/02/17 16:47:11;;;;;;;4.03;3.20;;;;;;;14.59;63.82;100413.28;5115625;27;42261;-89
2024/02/17 16:49:39;;;;;;;5.47;3.43;;;;;;;14.62;64.21;100434.47;5115901;27;39080;-88
2024/02/17 16:52:08;;;;;;;3.43;3.03;;;;;;;14.46;64.53;100411.41;5132466;27;41952;-88
2024/02/17 16:54:39;;;;;;;7.37;3.00;;;;;;;14.12;64.77;100358.97;5115373;27;41878;-88
2024/02/17 16:57:11;;;;;;;3.97;3.33;;;;;;;14.06;65.19;100351.34;5132747;27;42410;-89
2024/02/17 16:59:42;;;;;;;6.40;3.57;;;;;;;14.35;65.59;100414.56;5115881;27;40935;-88
2024/02/17 17:05:42;;;;;;;4.40;3.80;;;;;;;14.25;66.46;100408.88;5120266;27;43445;-89
2024/02/17 17:08:14;;;;;;;5.63;3.43;;;;;;;14.29;66.35;100430.91;5132364;27;41472;-89
2024/02/17 17:10:42;;;;;;;4.07;3.10;;;;;;;14.21;66.65;100422.47;5134596;27;39827;-89
2024/02/17 17:13:10;;;;;;;4.60;3.53;;;;;;;13.89;66.72;100377.03;5118647;27;42654;-89
2024/02/17 17:15:41;;;;;;;4.37;2.70;;;;;;;14.12;66.19;100417.59;5118937;27;44320;-87
2024/02/17 17:18:08;;;;;;;4.20;3.30;;;;;;;14.23;66.58;100441.88;5136092;27;43145;-88
2024/02/17 17:20:40;;;;;;;3.33;2.90;;;;;;;14.19;66.64;100435.00;5118741;27;39923;-88
2024/02/17 17:23:08;;;;;;;4.23;3.37;;;;;;;14.13;66.52;100435.31;5118712;27;40799;-88
2024/02/17 17:25:37;;;;;;;4.90;3.83;;;;;;;14.17;66.71;100442.22;5136320;27;43104;-88
2024/02/17 17:28:05;;;;;;;4.43;3.37;;;;;;;14.13;66.46;100451.28;5118750;27;41436;-88
2024/02/17 17:30:33;;;;;;;3.67;3.37;;;;;;;14.11;67.20;100450.50;5118915;27;39253;-88
2024/02/17 17:33:01;;;;;;;4.87;3.40;;;;;;;14.07;66.87;100452.50;5135619;27;41510;-88
2024/02/17 17:35:28;;;;;;;5.07;3.40;;;;;;;14.10;66.80;100464.78;5118619;27;41937;-88
2024/02/17 17:41:18;;;;;;;4.70;3.30;;;;;;;14.13;67.27;100485.94;5136651;27;38935;-88
2024/02/17 17:44:31;;;;;;;4.53;3.33;;;;;;;13.64;67.44;100411.19;5118052;27;41042;-88
2024/02/17 17:47:18;;;;;;;4.00;3.40;;;;;;;13.90;67.69;100456.00;5098732;27;44272;-89
2024/02/17 17:50:35;;;;;;;3.87;3.37;;;;;;;13.75;67.75;100437.28;5118338;27;42006;-88
2024/02/17 17:53:34;;;;;;;5.10;3.53;;;;;;;14.03;67.80;100489.06;5117777;27;38795;-88
2024/02/17 17:56:07;;;;;;;4.03;3.50;;;;;;;13.73;68.46;100448.00;5135276;27;40749;-88
2024/02/17 17:58:35;;;;;;;4.77;3.30;;;;;;;13.88;68.32;100478.31;5117818;27;43329;-88
2024/02/17 18:01:03;;;;;;;4.33;3.93;;;;;;;13.76;68.62;100463.81;5135473;27;43076;-88
2024/02/17 18:03:30;;;;;;;5.07;3.50;;;;;;;13.93;68.40;100493.16;5118086;27;39257;-88
2024/02/17 18:05:58;;;;;;;4.60;3.30;;;;;;;13.79;68.56;100474.31;5118413;27;40934;-89
2024/02/17 18:08:26;;;;;;;6.10;3.67;;;;;;;13.82;68.53;100486.63;5118022;27;45277;-89
2024/02/17 18:10:55;;;;;;;5.77;3.13;;;;;;;13.78;69.05;100485.91;5118575;27;43785;-88
2024/02/17 18:13:23;;;;;;;5.43;3.13;;;;;;;13.74;68.55;100487.00;5117881;27;39158;-88
2024/02/17 18:15:51;;;;;;;4.03;2.97;;;;;;;13.80;68.95;100502.69;5119325;27;40709;-87
2024/02/17 18:18:18;;;;;;;4.70;3.20;;;;;;;13.77;68.90;100501.97;5118043;27;42133;-89
2024/02/17 18:20:46;;;;;;;3.90;3.10;;;;;;;13.76;69.05;100502.91;5117254;27;40900;-89
2024/02/17 18:23:20;;;;;;;4.93;3.20;;;;;;;13.63;69.11;100500.84;5117276;27;40409;-89
2024/02/17 18:25:47;;;;;;;5.07;3.20;;;;;;;13.71;69.09;100524.44;5117714;27;41111;-89
2024/02/17 18:28:17;;;;;;;3.43;3.07;;;;;;;13.59;69.11;100504.63;5117385;27;41496;-89
2024/02/17 18:30:45;;;;;;;4.60;3.33;;;;;;;13.76;69.75;100532.19;5117483;27;42782;-88